Ana Sayfa
METAR-TAF:

METAR-TAF

Havaalanları :

Sault Ste. Marie Municipal Airport (Sanderson Field)

Sault Ste. Marie, Michigan, Amerika Birleşik Devletleri

Enlem: 46-28-46N, Boylam: 084-21-26W, yükseklik: 210 m

Güncel hava durumu gözlemi

Rapor saat 03:55 UTC de 43 dakika önce yapıldı.
Rüzgar güneybatıdan 11 kt ve 21 kt'a kadar ani rüzgarlar
Sıcaklık -2°C
Nem 74%
Basınç 1020 hPa
Görüş mesafesi: 16.1 km
Açık gökyüzü

METAR: KANJ 220355Z AUTO 23011G21KT 10SM CLR M02/M06 A3011 RMK AO2 SLP206 T10171061

Saat: 23:38 (04:38 UTC)


TAF: eksik

4.000'den fazla havaalanı için hava durumu gözlemleri ve tahminleri (METAR ve TAF raporları).

Kullanılabilir istasyonlar harita üzerinde sarı ve kırmızı noktalarla gösterilir.

İstasyonun adını görmek için fareyi noktanın üzerinde gezdirin.

Sonrasında hava gözlem ve tahminlerini görmek için tıklayın.

Haritayı değiştirmek için: yaklaştırmak için siyah artı işaretli yeşil düğmeye ve uzaklaştırmak için de eksi işaretli düğmeye hızla tıklayın; bitişik haritalar için yeşil okları kullanın.


METAR-TAF: